createdAt,value
2017-11-01T00:02:11.071Z,7.90
2017-11-01T00:04:39.409Z,8.00
2017-11-01T00:07:06.969Z,7.90
2017-11-01T00:09:34.545Z,8.00
2017-11-01T00:12:02.088Z,8.00
2017-11-01T00:14:29.692Z,8.10
2017-11-01T00:16:57.240Z,8.10
2017-11-01T00:19:25.564Z,8.10
2017-11-01T00:21:53.186Z,8.10
2017-11-01T00:24:20.735Z,8.10
2017-11-01T00:26:49.060Z,8.10
2017-11-01T00:29:16.653Z,8.10
2017-11-01T00:31:44.220Z,8.10
2017-11-01T00:34:12.573Z,8.00
2017-11-01T00:36:40.879Z,8.00
2017-11-01T00:39:09.288Z,8.00
2017-11-01T00:41:37.811Z,7.90
2017-11-01T00:44:05.397Z,7.90
2017-11-01T00:46:32.964Z,7.80
2017-11-01T00:49:01.345Z,7.70
2017-11-01T00:51:28.945Z,7.70
2017-11-01T00:53:56.493Z,7.70
2017-11-01T00:56:24.070Z,7.80
2017-11-01T00:58:51.641Z,7.70
2017-11-01T01:01:19.184Z,7.70
2017-11-01T01:03:46.851Z,7.70
2017-11-01T01:06:14.432Z,7.70
2017-11-01T01:08:42.081Z,7.70
2017-11-01T01:11:09.636Z,7.70
2017-11-01T01:13:37.191Z,7.70
2017-11-01T01:16:04.739Z,7.70
2017-11-01T01:18:32.306Z,7.60
2017-11-01T01:20:59.860Z,7.70
2017-11-01T01:23:27.428Z,7.60
2017-11-01T01:25:54.996Z,7.60
2017-11-01T01:28:22.551Z,7.70
2017-11-01T01:30:50.126Z,7.70
2017-11-01T01:33:18.465Z,7.80
2017-11-01T01:35:46.040Z,7.80
2017-11-01T01:38:13.600Z,7.80
2017-11-01T01:40:41.149Z,7.80
2017-11-01T01:43:08.721Z,7.80
2017-11-01T01:45:36.310Z,7.70
2017-11-01T01:48:04.660Z,7.80
2017-11-01T01:50:32.209Z,7.70
2017-11-01T01:52:59.784Z,7.80
2017-11-01T01:55:27.333Z,7.70
2017-11-01T01:57:54.917Z,7.70
2017-11-01T02:00:23.254Z,7.70
2017-11-01T02:02:52.169Z,7.70
2017-11-01T02:05:19.733Z,7.70
2017-11-01T02:07:48.029Z,7.60
2017-11-01T02:17:57.564Z,7.60
2017-11-01T02:20:25.124Z,7.60
2017-11-01T02:22:52.684Z,7.60
2017-11-01T02:25:20.274Z,7.60
2017-11-01T02:27:48.585Z,7.70
2017-11-01T02:30:16.216Z,7.70
2017-11-01T02:32:44.562Z,7.60
2017-11-01T02:35:12.223Z,7.60
2017-11-01T02:37:39.784Z,7.60
2017-11-01T02:40:07.338Z,7.60
2017-11-01T02:42:34.913Z,7.60
2017-11-01T02:45:02.635Z,7.70
2017-11-01T02:47:30.260Z,7.60
2017-11-01T02:49:57.844Z,7.60
2017-11-01T02:52:25.404Z,7.70
2017-11-01T02:54:52.956Z,7.80
2017-11-01T02:57:20.574Z,7.80
2017-11-01T02:59:50.880Z,7.80
2017-11-01T03:02:18.439Z,7.80
2017-11-01T03:04:45.997Z,7.80
2017-11-01T03:07:13.574Z,7.90
2017-11-01T03:09:41.119Z,7.90
2017-11-01T03:12:08.703Z,8.00
2017-11-01T03:14:37.103Z,7.90
2017-11-01T03:17:04.678Z,7.90
2017-11-01T03:19:32.255Z,7.80
2017-11-01T03:21:59.837Z,7.80
2017-11-01T03:24:27.394Z,7.70
2017-11-01T03:26:55.046Z,7.70
2017-11-01T03:29:22.629Z,7.70
2017-11-01T03:31:50.990Z,7.60
2017-11-01T03:34:18.543Z,7.60
2017-11-01T03:36:46.157Z,7.60
2017-11-01T03:39:13.701Z,7.60
2017-11-01T03:41:41.266Z,7.60
2017-11-01T03:44:08.812Z,7.70
2017-11-01T03:46:37.128Z,7.80
2017-11-01T03:49:04.707Z,7.80
2017-11-01T03:51:32.262Z,7.80
2017-11-01T03:53:59.836Z,7.80
2017-11-01T03:56:27.499Z,7.70
2017-11-01T03:58:55.147Z,7.70
2017-11-01T04:01:22.807Z,7.70
2017-11-01T04:03:50.396Z,7.60
2017-11-01T04:06:18.720Z,7.50
2017-11-01T04:08:46.282Z,7.50
2017-11-01T04:11:13.862Z,7.50
2017-11-01T04:13:41.433Z,7.50
2017-11-01T04:16:08.999Z,7.50
2017-11-01T04:18:38.253Z,7.50
2017-11-01T04:21:05.838Z,7.50
2017-11-01T04:23:33.574Z,7.50
2017-11-01T04:26:01.139Z,7.50
2017-11-01T04:28:28.716Z,7.50
2017-11-01T04:30:56.270Z,7.50
2017-11-01T04:33:24.622Z,7.50
2017-11-01T04:35:52.219Z,7.50
2017-11-01T04:38:19.873Z,7.60
2017-11-01T04:40:47.453Z,7.60
2017-11-01T04:43:16.520Z,7.50
2017-11-01T04:45:44.199Z,7.50
2017-11-01T04:48:13.564Z,7.50
2017-11-01T04:50:41.116Z,7.50
2017-11-01T04:53:08.678Z,7.50
2017-11-01T04:55:42.797Z,7.60
2017-11-01T04:58:10.383Z,7.60
2017-11-01T05:00:42.943Z,7.60
2017-11-01T05:03:12.405Z,7.50
2017-11-01T05:05:39.934Z,7.50
2017-11-01T05:11:09.836Z,7.40
2017-11-01T05:13:42.937Z,7.40
2017-11-01T05:16:10.521Z,7.40
2017-11-01T05:18:38.841Z,7.30
2017-11-01T05:21:06.402Z,7.30
2017-11-01T05:23:37.923Z,7.30
2017-11-01T05:26:07.387Z,7.30
2017-11-01T05:28:35.042Z,7.30
2017-11-01T05:31:02.587Z,7.30
2017-11-01T05:33:30.131Z,7.30
2017-11-01T05:35:58.495Z,7.20
2017-11-01T05:38:26.068Z,7.20
2017-11-01T05:40:53.654Z,7.20
2017-11-01T05:43:21.228Z,7.30
2017-11-01T05:45:48.788Z,7.30
2017-11-01T05:48:17.145Z,7.30
2017-11-01T05:50:44.696Z,7.30
2017-11-01T05:53:12.299Z,7.30
2017-11-01T05:55:39.856Z,7.30
2017-11-01T05:58:08.197Z,7.30
2017-11-01T06:00:35.769Z,7.30
2017-11-01T06:03:03.353Z,7.40
2017-11-01T06:05:31.719Z,7.50
2017-11-01T06:08:00.071Z,7.50
2017-11-01T06:10:27.617Z,7.50
2017-11-01T06:12:55.227Z,7.50
2017-11-01T06:15:23.581Z,7.50
2017-11-01T06:17:51.230Z,7.50
2017-11-01T06:20:18.809Z,7.60
2017-11-01T06:22:47.166Z,7.50
2017-11-01T06:25:14.719Z,7.50
2017-11-01T06:27:42.285Z,7.50
2017-11-01T06:30:09.881Z,7.40
2017-11-01T06:32:38.201Z,7.50
2017-11-01T06:35:05.786Z,7.50
2017-11-01T06:37:33.356Z,7.50
2017-11-01T06:40:01.677Z,7.50
2017-11-01T06:42:29.288Z,7.40
2017-11-01T06:44:57.644Z,7.50
2017-11-01T06:47:25.203Z,7.50
2017-11-01T06:49:52.808Z,7.50
2017-11-01T06:52:20.364Z,7.50
2017-11-01T06:54:47.939Z,7.60
2017-11-01T06:57:15.487Z,7.50
2017-11-01T06:59:43.069Z,7.50
2017-11-01T07:02:10.620Z,7.50
2017-11-01T07:04:38.213Z,7.50
2017-11-01T07:07:05.779Z,7.60
2017-11-01T07:09:36.078Z,7.60
2017-11-01T07:12:03.652Z,7.50
2017-11-01T07:14:31.208Z,7.50
2017-11-01T07:16:58.780Z,7.50
2017-11-01T07:19:26.343Z,7.50
2017-11-01T07:21:53.943Z,7.50
2017-11-01T07:24:21.509Z,7.60
2017-11-01T07:26:49.066Z,7.60
2017-11-01T07:29:16.641Z,7.70
2017-11-01T07:31:44.236Z,7.70
2017-11-01T07:34:11.811Z,7.70
2017-11-01T07:36:40.163Z,7.60
2017-11-01T07:39:07.742Z,7.60
2017-11-01T07:41:35.327Z,7.70
2017-11-01T07:44:02.877Z,7.70
2017-11-01T07:46:30.449Z,7.70
2017-11-01T07:48:57.998Z,7.80
2017-11-01T07:51:25.584Z,7.80
2017-11-01T07:53:53.132Z,7.70
2017-11-01T07:56:20.689Z,7.70
2017-11-01T07:58:48.278Z,7.70
2017-11-01T08:01:15.849Z,7.70
2017-11-01T08:03:43.424Z,7.60
2017-11-01T08:06:11.761Z,7.80
2017-11-01T08:08:39.344Z,7.80
2017-11-01T08:11:06.901Z,7.80
2017-11-01T08:13:34.461Z,7.80
2017-11-01T08:16:02.045Z,7.80
2017-11-01T08:18:30.388Z,7.90
2017-11-01T08:20:57.965Z,7.90
2017-11-01T08:23:25.570Z,7.90
2017-11-01T08:25:53.120Z,7.90
2017-11-01T08:28:21.660Z,8.00
2017-11-01T08:30:49.259Z,8.00
2017-11-01T08:33:16.803Z,8.00
2017-11-01T08:35:45.148Z,8.10
2017-11-01T08:38:12.694Z,8.10
2017-11-01T08:40:40.309Z,8.10
2017-11-01T08:43:07.899Z,8.10
2017-11-01T08:45:35.435Z,8.20
2017-11-01T08:48:02.977Z,8.30
2017-11-01T08:50:31.305Z,8.50
2017-11-01T08:52:58.942Z,8.50
2017-11-01T08:55:26.493Z,8.50
2017-11-01T08:57:54.058Z,8.60
2017-11-01T09:00:21.636Z,8.70
2017-11-01T09:02:49.214Z,8.70
2017-11-01T09:05:16.742Z,8.70
2017-11-01T09:07:44.345Z,8.80
2017-11-01T09:10:11.892Z,8.80
2017-11-01T09:12:39.458Z,8.90
2017-11-01T09:15:07.039Z,9.00
2017-11-01T09:17:35.338Z,9.10
2017-11-01T09:20:02.921Z,9.10
2017-11-01T09:22:30.453Z,9.20
2017-11-01T09:24:58.057Z,9.20
2017-11-01T09:27:25.629Z,9.20
2017-11-01T09:29:53.159Z,9.30
2017-11-01T09:32:20.691Z,9.30
2017-11-01T09:34:48.288Z,9.30
2017-11-01T09:37:15.832Z,9.30
2017-11-01T09:39:43.394Z,9.40
2017-11-01T09:42:10.978Z,9.40
2017-11-01T09:44:39.329Z,9.50
2017-11-01T09:47:06.912Z,9.50
2017-11-01T09:49:34.465Z,9.50
2017-11-01T09:52:02.037Z,9.50
2017-11-01T09:54:30.381Z,9.40
2017-11-01T09:56:57.969Z,9.50
2017-11-01T09:59:25.539Z,9.50
2017-11-01T10:01:53.878Z,9.40
2017-11-01T10:04:21.447Z,9.40
2017-11-01T10:06:49.022Z,9.50
2017-11-01T10:09:16.600Z,9.50
2017-11-01T10:11:44.901Z,9.60
2017-11-01T10:14:12.510Z,9.60
2017-11-01T10:16:41.571Z,9.70
2017-11-01T10:19:09.173Z,9.70
2017-11-01T10:21:37.498Z,9.70
2017-11-01T10:24:05.055Z,9.70
2017-11-01T10:26:32.647Z,9.70
2017-11-01T10:29:00.209Z,9.70
2017-11-01T10:31:27.793Z,9.80
2017-11-01T10:33:56.154Z,9.90
2017-11-01T10:36:23.726Z,9.90
2017-11-01T10:38:52.091Z,10.10
2017-11-01T10:41:19.649Z,10.10
2017-11-01T10:43:47.247Z,10.20
2017-11-01T10:46:14.872Z,10.20
2017-11-01T10:48:42.428Z,10.30
2017-11-01T10:51:09.974Z,10.30
2017-11-01T10:53:37.543Z,10.30
2017-11-01T10:56:05.105Z,10.30
2017-11-01T10:58:32.726Z,10.30
2017-11-01T11:01:00.280Z,10.40
2017-11-01T11:03:27.813Z,10.30
2017-11-01T11:05:55.394Z,10.40
2017-11-01T11:08:22.981Z,10.40
2017-11-01T11:10:50.636Z,10.60
2017-11-01T11:13:18.283Z,10.60
2017-11-01T11:15:45.884Z,10.70
2017-11-01T11:18:14.205Z,10.70
2017-11-01T11:20:41.768Z,10.70
2017-11-01T11:23:09.342Z,10.80
2017-11-01T11:25:36.878Z,10.90
2017-11-01T11:28:04.468Z,11.00
2017-11-01T11:30:32.031Z,11.10
2017-11-01T11:32:59.598Z,11.30
2017-11-01T11:35:27.182Z,11.40
2017-11-01T11:37:55.569Z,12.00
2017-11-01T11:40:23.896Z,12.10
2017-11-01T11:42:51.489Z,12.10
2017-11-01T11:45:19.858Z,12.80
2017-11-01T11:47:47.430Z,12.80
2017-11-01T11:50:15.734Z,13.60
2017-11-01T11:52:43.338Z,13.60
2017-11-01T11:55:11.057Z,14.00
2017-11-01T11:57:38.658Z,14.40
2017-11-01T12:00:06.214Z,14.80
2017-11-01T12:02:33.888Z,15.00
2017-11-01T12:05:01.426Z,15.30
2017-11-01T12:07:28.962Z,15.60
2017-11-01T12:09:56.517Z,16.00
2017-11-01T12:12:24.088Z,16.30
2017-11-01T12:14:51.658Z,16.60
2017-11-01T12:17:19.193Z,16.90
2017-11-01T12:19:46.789Z,17.30
2017-11-01T12:22:14.359Z,17.70
2017-11-01T12:24:41.918Z,18.20
2017-11-01T12:27:09.492Z,18.60
2017-11-01T12:29:37.932Z,19.20
2017-11-01T12:32:05.498Z,19.10
2017-11-01T12:34:33.096Z,19.50
2017-11-01T12:37:01.424Z,20.30
2017-11-01T12:39:28.973Z,20.30
2017-11-01T12:41:56.517Z,20.90
2017-11-01T12:44:24.104Z,21.40
2017-11-01T12:46:51.665Z,21.80
2017-11-01T12:49:19.261Z,22.10
2017-11-01T12:51:47.606Z,22.30
2017-11-01T12:54:15.171Z,22.30
2017-11-01T12:56:42.972Z,22.80
2017-11-01T12:59:10.595Z,23.20
2017-11-01T13:01:38.275Z,23.70
2017-11-01T13:04:06.668Z,24.50
2017-11-01T13:06:34.969Z,24.80
2017-11-01T13:09:02.598Z,24.70
2017-11-01T13:11:31.000Z,25.00
2017-11-01T13:13:58.611Z,25.00
2017-11-01T13:16:26.254Z,25.40
2017-11-01T13:18:53.882Z,25.80
2017-11-01T13:21:21.459Z,26.10
2017-11-01T13:23:49.093Z,26.30
2017-11-01T13:26:16.713Z,26.60
2017-11-01T13:28:45.795Z,27.10
2017-11-01T13:31:13.439Z,27.10
2017-11-01T13:33:41.069Z,27.20
2017-11-01T13:36:08.623Z,27.10
2017-11-01T13:38:36.958Z,27.20
2017-11-01T13:41:04.795Z,27.20
2017-11-01T13:43:32.370Z,27.30
2017-11-01T13:45:59.936Z,27.00
2017-11-01T13:48:27.528Z,26.90
2017-11-01T13:50:55.817Z,26.60
2017-11-01T13:53:24.140Z,26.10
2017-11-01T13:55:51.702Z,26.10
2017-11-01T13:58:19.243Z,25.40
2017-11-01T14:00:46.806Z,24.50
2017-11-01T14:03:14.408Z,23.80
2017-11-01T14:05:42.732Z,22.50
2017-11-01T14:08:10.283Z,22.50
2017-11-01T14:10:37.838Z,21.90
2017-11-01T14:13:05.436Z,21.50
2017-11-01T14:15:33.001Z,21.00
2017-11-01T14:18:00.554Z,20.60
2017-11-01T14:20:28.598Z,20.20
2017-11-01T14:22:56.478Z,19.90
2017-11-01T14:25:24.071Z,19.60
2017-11-01T14:27:52.818Z,19.00
2017-11-01T14:30:20.468Z,18.90
2017-11-01T14:32:48.025Z,18.70
2017-11-01T14:35:15.620Z,18.40
2017-11-01T14:37:43.288Z,18.20
2017-11-01T14:40:11.682Z,17.90
2017-11-01T14:42:40.037Z,17.60
2017-11-01T14:45:09.086Z,17.40
2017-11-01T14:47:36.720Z,17.40
2017-11-01T14:50:05.045Z,17.10
2017-11-01T14:52:32.723Z,17.00
2017-11-01T14:55:00.284Z,17.00
2017-11-01T14:57:27.884Z,16.80
2017-11-01T14:59:55.440Z,16.70
2017-11-01T15:02:23.029Z,16.60
2017-11-01T15:04:50.633Z,16.50
2017-11-01T15:07:18.171Z,16.40
2017-11-01T15:09:45.721Z,16.30
2017-11-01T15:12:13.276Z,16.20
2017-11-01T15:14:40.886Z,16.20
2017-11-01T15:17:09.269Z,16.00
2017-11-01T15:19:37.676Z,15.90
2017-11-01T15:22:05.251Z,15.90
2017-11-01T15:24:32.824Z,15.80
2017-11-01T15:27:00.405Z,15.80
2017-11-01T15:29:28.003Z,15.60
2017-11-01T15:31:55.570Z,15.60
2017-11-01T15:34:23.163Z,15.50
2017-11-01T15:36:50.798Z,15.30
2017-11-01T15:39:18.469Z,15.20
2017-11-01T15:41:52.460Z,15.10
2017-11-01T15:44:20.061Z,14.90
2017-11-01T15:46:48.405Z,14.60
2017-11-01T15:49:15.966Z,14.60
2017-11-01T15:51:43.575Z,14.50
2017-11-01T15:54:11.881Z,14.40
2017-11-01T15:56:39.579Z,14.30
2017-11-01T15:59:07.250Z,14.30
2017-11-01T16:01:35.595Z,14.00
2017-11-01T16:04:03.149Z,14.00
2017-11-01T16:06:30.725Z,13.90
2017-11-01T16:08:58.335Z,13.80
2017-11-01T16:11:26.751Z,13.60
2017-11-01T16:13:54.408Z,13.60
2017-11-01T16:16:22.038Z,13.50
2017-11-01T16:18:49.657Z,13.40
2017-11-01T16:21:17.292Z,13.20
2017-11-01T16:23:44.823Z,13.10
2017-11-01T16:26:12.388Z,12.90
2017-11-01T16:28:39.929Z,12.90
2017-11-01T16:31:08.285Z,12.80
2017-11-01T16:33:35.917Z,12.80
2017-11-01T16:36:03.477Z,12.80
2017-11-01T16:38:31.075Z,12.70
2017-11-01T16:40:59.458Z,12.70
2017-11-01T16:43:27.810Z,12.60
2017-11-01T16:45:55.433Z,12.50
2017-11-01T16:48:23.076Z,12.50
2017-11-01T16:50:50.697Z,12.40
2017-11-01T16:53:19.883Z,12.20
2017-11-01T16:55:47.551Z,12.20
2017-11-01T16:58:15.136Z,12.20
2017-11-01T17:00:43.487Z,11.90
2017-11-01T17:03:11.084Z,11.90
2017-11-01T17:05:38.778Z,11.90
2017-11-01T17:08:06.356Z,11.90
2017-11-01T17:10:34.033Z,11.80
2017-11-01T17:13:03.302Z,11.70
2017-11-01T17:15:30.857Z,11.70
2017-11-01T17:17:58.406Z,11.70
2017-11-01T17:20:26.156Z,11.70
2017-11-01T17:22:53.702Z,11.60
2017-11-01T17:25:21.260Z,11.60
2017-11-01T17:27:48.838Z,11.50
2017-11-01T17:30:16.418Z,11.50
2017-11-01T17:32:43.954Z,11.40
2017-11-01T17:35:11.514Z,11.30
2017-11-01T17:37:39.087Z,11.30
2017-11-01T17:40:06.640Z,11.20
2017-11-01T17:42:34.199Z,11.00
2017-11-01T17:45:01.795Z,10.90
2017-11-01T17:47:30.176Z,10.70
2017-11-01T17:49:57.776Z,10.70
2017-11-01T17:52:25.338Z,10.60
2017-11-01T17:54:52.911Z,10.50
2017-11-01T17:57:20.478Z,10.50
2017-11-01T17:59:48.044Z,10.60
2017-11-01T18:02:15.602Z,10.60
2017-11-01T18:04:43.215Z,10.70
2017-11-01T18:07:10.750Z,10.70
2017-11-01T18:09:38.334Z,10.70
2017-11-01T18:12:05.923Z,10.70
2017-11-01T18:14:33.515Z,10.60
2017-11-01T18:17:01.093Z,10.60
2017-11-01T18:19:29.453Z,10.50
2017-11-01T18:21:57.800Z,10.50
2017-11-01T18:24:25.364Z,10.50
2017-11-01T18:26:53.002Z,10.50
2017-11-01T18:29:20.671Z,10.50
2017-11-01T18:31:48.274Z,10.40
2017-11-01T18:34:15.857Z,10.30
2017-11-01T18:36:43.501Z,10.20
2017-11-01T18:39:11.822Z,10.10
2017-11-01T18:41:39.393Z,10.10
2017-11-01T18:44:06.976Z,10.10
2017-11-01T18:46:34.526Z,10.10
2017-11-01T18:49:02.131Z,10.10
2017-11-01T18:51:29.734Z,10.10
2017-11-01T18:53:57.292Z,10.00
2017-11-01T18:56:24.890Z,10.00
2017-11-01T18:58:53.266Z,9.90
2017-11-01T19:01:21.601Z,9.90
2017-11-01T19:03:49.147Z,9.90
2017-11-01T19:06:16.750Z,9.90
2017-11-01T19:08:44.354Z,9.90
2017-11-01T19:11:11.950Z,9.90
2017-11-01T19:13:39.528Z,9.80
2017-11-01T19:16:07.296Z,9.70
2017-11-01T19:18:34.854Z,9.60
2017-11-01T19:21:02.422Z,9.50
2017-11-01T19:23:30.796Z,9.50
2017-11-01T19:25:58.356Z,9.50
2017-11-01T19:28:26.073Z,9.50
2017-11-01T19:30:53.666Z,9.60
2017-11-01T19:33:21.241Z,9.60
2017-11-01T19:35:49.588Z,9.60
2017-11-01T19:38:17.151Z,9.60
2017-11-01T19:40:44.783Z,9.60
2017-11-01T19:43:12.454Z,9.60
2017-11-01T19:45:40.116Z,9.60
2017-11-01T19:48:07.711Z,9.50
2017-11-01T19:50:35.342Z,9.50
2017-11-01T19:53:02.988Z,9.40
2017-11-01T19:55:30.586Z,9.30
2017-11-01T19:57:58.297Z,9.20
2017-11-01T20:00:25.856Z,9.10
2017-11-01T20:02:53.494Z,9.10
2017-11-01T20:05:21.090Z,9.00
2017-11-01T20:07:48.706Z,9.10
2017-11-01T20:10:17.124Z,9.10
2017-11-01T20:12:44.712Z,9.10
2017-11-01T20:15:12.291Z,9.20
2017-11-01T20:17:40.619Z,9.20
2017-11-01T20:20:08.239Z,9.20
2017-11-01T20:22:36.614Z,9.30
2017-11-01T20:25:05.003Z,9.30
2017-11-01T20:27:32.694Z,9.30
2017-11-01T20:30:00.342Z,9.30
2017-11-01T20:32:27.979Z,9.30
2017-11-01T20:34:56.447Z,9.30
2017-11-01T20:37:24.819Z,9.20
2017-11-01T20:39:52.479Z,9.20
2017-11-01T20:42:20.907Z,9.20
2017-11-01T20:44:48.671Z,9.20
2017-11-01T20:47:16.231Z,9.20
2017-11-01T20:49:43.835Z,9.20
2017-11-01T20:52:11.416Z,9.20
2017-11-01T20:54:39.821Z,9.20
2017-11-01T20:57:07.367Z,9.10
2017-11-01T20:59:35.007Z,9.10
2017-11-01T21:02:03.485Z,9.20
2017-11-01T21:04:31.801Z,9.10
2017-11-01T21:06:59.472Z,9.10
2017-11-01T21:09:27.103Z,9.10
2017-11-01T21:11:54.909Z,9.10
2017-11-01T21:14:22.474Z,9.10
2017-11-01T21:16:50.141Z,9.00
2017-11-01T21:19:17.738Z,9.00
2017-11-01T21:21:46.051Z,8.90
2017-11-01T21:24:13.673Z,8.90
2017-11-01T21:26:41.229Z,8.90
2017-11-01T21:29:09.542Z,8.90
2017-11-01T21:31:37.128Z,8.80
2017-11-01T21:34:04.686Z,8.90
2017-11-01T21:36:32.390Z,8.90
2017-11-01T21:38:59.970Z,8.90
2017-11-01T21:41:27.539Z,8.90
2017-11-01T21:43:55.271Z,8.90
2017-11-01T21:46:22.854Z,8.90
2017-11-01T21:48:50.863Z,9.00
2017-11-01T21:51:19.949Z,9.00
2017-11-01T21:53:47.604Z,8.90
2017-11-01T21:56:15.447Z,9.00
2017-11-01T21:58:43.346Z,8.90
2017-11-01T22:01:10.971Z,8.90
2017-11-01T22:03:38.725Z,8.90
2017-11-01T22:06:06.307Z,8.90
2017-11-01T22:08:33.960Z,8.90
2017-11-01T22:11:01.550Z,8.90
2017-11-01T22:13:29.180Z,8.90
2017-11-01T22:15:56.785Z,8.90
2017-11-01T22:18:25.111Z,8.90
2017-11-01T22:20:52.683Z,8.80
2017-11-01T22:23:20.257Z,8.80
2017-11-01T22:25:47.810Z,8.80
2017-11-01T22:28:15.403Z,8.80
2017-11-01T22:30:43.725Z,8.80
2017-11-01T22:33:11.300Z,8.80
2017-11-01T22:35:38.892Z,8.80
2017-11-01T22:38:07.221Z,8.70
2017-11-01T22:40:34.803Z,8.70
2017-11-01T22:43:02.465Z,8.80
2017-11-01T22:45:30.842Z,8.80
2017-11-01T22:47:58.386Z,8.80
2017-11-01T22:50:25.946Z,8.80
2017-11-01T22:52:53.520Z,8.90
2017-11-01T22:55:21.109Z,8.90
2017-11-01T22:57:49.460Z,8.90
2017-11-01T23:00:17.010Z,8.90
2017-11-01T23:02:44.597Z,8.90
2017-11-01T23:05:12.961Z,9.00
2017-11-01T23:07:40.495Z,9.00
2017-11-01T23:10:08.061Z,9.00
2017-11-01T23:12:35.612Z,9.00
2017-11-01T23:15:03.274Z,9.10
2017-11-01T23:17:30.827Z,9.10
2017-11-01T23:19:58.406Z,9.10
2017-11-01T23:22:27.535Z,9.20
2017-11-01T23:24:55.859Z,9.20
2017-11-01T23:27:23.438Z,9.20
2017-11-01T23:29:50.997Z,9.20
2017-11-01T23:32:18.605Z,9.20
2017-11-01T23:34:46.193Z,9.20
2017-11-01T23:37:13.766Z,9.10
2017-11-01T23:39:41.312Z,9.20
2017-11-01T23:42:08.877Z,9.10
2017-11-01T23:44:36.454Z,9.10
2017-11-01T23:47:04.078Z,9.00
2017-11-01T23:49:31.661Z,9.00
2017-11-01T23:51:59.213Z,9.00
2017-11-01T23:54:26.780Z,9.00
2017-11-01T23:56:54.380Z,9.10
2017-11-01T23:59:21.931Z,9.10
